Time;durP1;ratioP1;P1;durP2;ratioP2;P2;SDS_P1;SDS_P2;PMS_P1;PMS_P2;Temp;Humidity;BMP_temperature;BMP_pressure;BME280_temperature;BME280_humidity;BME280_pressure;Samples;Min_cycle;Max_cycle;Signal;HPM_P1;HPM_P2
2021/04/28 00:00:40;;;;;;;15.15;9.13;;;6.40;87.80;;;;;;5049958;28;20561;-72
2021/04/28 00:03:09;;;;;;;9.77;8.13;;;6.40;87.70;;;;;;5051080;28;20204;-72
2021/04/28 00:05:36;;;;;;;10.95;6.95;;;6.40;87.40;;;;;;5050867;28;20212;-72
2021/04/28 00:08:04;;;;;;;7.57;6.05;;;6.40;87.40;;;;;;5051050;28;20672;-72
2021/04/28 00:10:32;;;;;;;7.60;6.80;;;6.40;87.80;;;;;;5050526;28;20323;-72
2021/04/28 00:13:00;;;;;;;7.25;6.22;;;6.30;87.60;;;;;;5050738;28;20205;-72
2021/04/28 00:15:28;;;;;;;7.47;6.30;;;6.30;87.60;;;;;;5051042;28;20259;-72
2021/04/28 00:17:55;;;;;;;8.82;6.38;;;6.30;87.70;;;;;;5050349;28;20201;-72
2021/04/28 00:20:23;;;;;;;8.13;5.55;;;6.30;88.00;;;;;;5050409;28;20302;-72
2021/04/28 00:22:50;;;;;;;6.85;5.60;;;6.20;88.00;;;;;;5050707;28;20197;-72
2021/04/28 00:25:18;;;;;;;7.95;6.22;;;6.20;88.30;;;;;;5050478;28;20634;-72
2021/04/28 00:27:45;;;;;;;7.47;5.60;;;6.20;88.40;;;;;;5050784;28;20568;-72
2021/04/28 00:30:14;;;;;;;6.60;5.90;;;6.20;88.80;;;;;;5049584;28;20256;-72
2021/04/28 00:32:41;;;;;;;8.13;5.90;;;6.20;88.90;;;;;;5049468;28;20216;-72
2021/04/28 00:35:10;;;;;;;6.70;5.90;;;6.10;89.10;;;;;;5050180;28;20212;-72
2021/04/28 00:37:37;;;;;;;7.55;5.40;;;6.10;89.20;;;;;;5050518;28;20212;-72
2021/04/28 00:40:05;;;;;;;8.77;6.45;;;6.10;89.00;;;;;;5050264;28;20228;-72
2021/04/28 00:42:33;;;;;;;6.60;5.65;;;6.10;88.90;;;;;;5050055;28;20209;-72
2021/04/28 00:45:00;;;;;;;10.25;5.65;;;6.10;88.70;;;;;;5050156;28;20668;-72
2021/04/28 00:47:27;;;;;;;7.00;5.68;;;6.10;89.40;;;;;;5050295;28;20204;-72
2021/04/28 00:49:54;;;;;;;10.38;6.30;;;6.10;89.30;;;;;;5049933;28;20243;-72
2021/04/28 00:52:21;;;;;;;9.50;5.85;;;6.10;89.80;;;;;;5049891;28;20205;-73
2021/04/28 00:54:48;;;;;;;6.90;5.50;;;6.00;89.70;;;;;;5049893;28;20693;-73
2021/04/28 00:57:15;;;;;;;7.18;5.90;;;6.00;89.20;;;;;;5049766;28;20607;-72
2021/04/28 00:59:41;;;;;;;8.40;5.93;;;6.00;88.80;;;;;;5049999;28;20236;-72
2021/04/28 01:02:07;;;;;;;11.98;5.95;;;6.00;89.00;;;;;;5049267;28;20561;-72
2021/04/28 01:04:35;;;;;;;7.28;5.28;;;5.90;88.90;;;;;;5049600;28;20205;-72
2021/04/28 01:07:04;;;;;;;7.32;5.53;;;5.90;89.10;;;;;;5049579;28;20251;-72
2021/04/28 01:09:31;;;;;;;7.57;6.25;;;5.90;89.00;;;;;;5049486;28;20280;-72
2021/04/28 01:11:57;;;;;;;6.63;5.65;;;5.80;89.00;;;;;;5049028;28;20544;-72
2021/04/28 01:14:25;;;;;;;8.80;5.68;;;5.80;89.10;;;;;;5049986;28;20205;-72
2021/04/28 01:16:51;;;;;;;6.40;5.60;;;5.80;89.20;;;;;;5049590;28;20254;-72
2021/04/28 01:19:19;;;;;;;7.13;6.18;;;5.80;89.20;;;;;;5049699;28;20229;-72
2021/04/28 01:21:46;;;;;;;8.65;5.50;;;5.80;89.10;;;;;;5049019;28;20211;-72
2021/04/28 01:24:14;;;;;;;6.70;5.93;;;5.70;88.80;;;;;;5049446;28;20197;-72
2021/04/28 01:26:42;;;;;;;7.78;6.15;;;5.70;89.20;;;;;;5049795;28;20216;-72
2021/04/28 01:29:09;;;;;;;7.43;5.75;;;5.70;89.30;;;;;;5049290;28;20232;-72
2021/04/28 01:31:36;;;;;;;7.55;5.45;;;5.60;89.60;;;;;;5049118;28;20224;-72
2021/04/28 01:34:04;;;;;;;7.90;4.97;;;5.70;89.70;;;;;;5049083;28;20212;-72
2021/04/28 01:36:34;;;;;;;7.68;5.68;;;5.60;89.80;;;;;;5049654;28;20213;-72
2021/04/28 01:39:05;;;;;;;7.47;6.40;;;5.60;89.80;;;;;;5049332;28;20641;-72
2021/04/28 01:41:37;;;;;;;9.45;5.70;;;5.60;89.90;;;;;;5048826;28;20246;-72
2021/04/28 01:44:04;;;;;;;6.97;5.75;;;5.60;90.10;;;;;;5049082;28;20256;-72
2021/04/28 01:46:31;;;;;;;8.00;7.00;;;5.60;90.10;;;;;;5049207;28;20733;-72
2021/04/28 01:48:59;;;;;;;9.77;5.88;;;5.60;90.00;;;;;;5049033;28;20221;-72
2021/04/28 01:51:26;;;;;;;6.90;5.28;;;5.50;90.20;;;;;;5048630;28;20228;-72
2021/04/28 01:53:52;;;;;;;9.50;6.00;;;5.50;90.00;;;;;;5049259;28;20207;-72
2021/04/28 01:56:21;;;;;;;8.52;7.15;;;5.50;89.90;;;;;;5049317;28;20625;-72
2021/04/28 01:58:49;;;;;;;8.68;5.78;;;5.50;90.10;;;;;;5048834;28;20225;-72
2021/04/28 02:01:16;;;;;;;7.35;5.90;;;5.50;90.20;;;;;;5048473;28;20350;-72
2021/04/28 02:03:42;;;;;;;8.05;5.78;;;5.50;90.30;;;;;;5048945;28;20205;-72
2021/04/28 02:06:09;;;;;;;7.63;6.00;;;5.40;90.30;;;;;;5048948;28;20204;-72
2021/04/28 02:08:35;;;;;;;8.35;6.00;;;5.40;90.50;;;;;;5049116;28;20601;-72
2021/04/28 02:11:04;;;;;;;7.35;5.75;;;5.40;90.60;;;;;;5047983;28;20703;-72
2021/04/28 02:13:33;;;;;;;6.07;5.47;;;5.40;90.90;;;;;;5045663;28;20632;-72
2021/04/28 02:16:01;;;;;;;8.30;6.05;;;5.40;90.90;;;;;;5046714;28;20258;-72
2021/04/28 02:18:28;;;;;;;11.20;6.53;;;5.30;91.00;;;;;;5047134;28;20205;-72
2021/04/28 02:20:55;;;;;;;7.00;5.70;;;5.30;90.90;;;;;;5046992;28;20250;-72
2021/04/28 02:23:22;;;;;;;6.75;5.63;;;5.20;91.00;;;;;;5048245;28;20205;-72
2021/04/28 02:25:48;;;;;;;6.95;5.65;;;5.20;91.10;;;;;;5048833;28;20201;-72
2021/04/28 02:28:14;;;;;;;7.55;6.40;;;5.20;91.00;;;;;;5048572;28;20205;-72
2021/04/28 02:30:41;;;;;;;9.45;5.55;;;5.20;91.20;;;;;;5048660;28;20603;-72
2021/04/28 02:33:08;;;;;;;7.93;6.30;;;5.20;91.10;;;;;;5048568;28;20227;-72
2021/04/28 02:35:34;;;;;;;7.13;6.15;;;5.20;91.00;;;;;;5049314;28;20201;-72
2021/04/28 02:38:05;;;;;;;7.38;5.85;;;5.10;91.00;;;;;;5048609;28;20616;-72
2021/04/28 02:40:32;;;;;;;7.18;6.25;;;5.10;90.90;;;;;;5048036;28;20286;-72
2021/04/28 02:42:59;;;;;;;7.82;6.00;;;5.10;91.30;;;;;;5048548;28;20204;-72
2021/04/28 02:45:26;;;;;;;8.23;6.20;;;5.10;91.30;;;;;;5048497;28;20204;-72
2021/04/28 02:47:54;;;;;;;7.80;5.95;;;5.10;91.20;;;;;;5048677;28;20208;-72
2021/04/28 02:50:25;;;;;;;7.20;6.45;;;5.00;91.20;;;;;;5048091;28;20252;-72
2021/04/28 02:52:53;;;;;;;8.20;6.45;;;5.00;91.50;;;;;;5048523;28;20205;-71
2021/04/28 02:55:20;;;;;;;10.35;6.72;;;5.00;91.50;;;;;;5049534;28;20212;-72
2021/04/28 02:57:47;;;;;;;7.75;6.30;;;4.90;91.60;;;;;;5052202;28;20208;-72
2021/04/28 03:00:17;;;;;;;7.13;5.90;;;4.90;91.50;;;;;;5051776;28;20224;-73
2021/04/28 03:02:44;;;;;;;7.65;5.45;;;4.90;91.80;;;;;;5052343;28;20205;-72
2021/04/28 03:05:13;;;;;;;8.15;6.20;;;4.80;92.00;;;;;;5052251;28;20683;-72
2021/04/28 03:07:40;;;;;;;10.10;6.00;;;4.80;91.90;;;;;;5052533;28;20207;-72
2021/04/28 03:10:07;;;;;;;7.43;5.25;;;4.70;92.20;;;;;;5051500;28;20225;-72
2021/04/28 03:12:34;;;;;;;9.98;6.03;;;4.70;92.20;;;;;;5051692;28;20208;-72
2021/04/28 03:15:01;;;;;;;9.75;5.95;;;4.70;92.30;;;;;;5051642;28;20216;-72
2021/04/28 03:17:27;;;;;;;6.60;5.55;;;4.70;92.30;;;;;;5052232;28;20209;-72
2021/04/28 03:19:57;;;;;;;6.97;6.03;;;4.70;92.10;;;;;;5051979;28;20213;-72
2021/04/28 03:22:23;;;;;;;8.20;5.90;;;4.70;92.20;;;;;;5050566;28;20212;-72
2021/04/28 03:24:51;;;;;;;8.45;6.30;;;4.70;92.30;;;;;;5051638;28;20201;-72
2021/04/28 03:27:20;;;;;;;8.07;6.45;;;4.70;92.40;;;;;;5050985;28;20201;-72
2021/04/28 03:29:46;;;;;;;7.43;6.10;;;4.70;91.90;;;;;;5051665;28;20282;-72
2021/04/28 03:32:13;;;;;;;10.63;6.13;;;4.60;92.10;;;;;;5051099;28;20209;-72
2021/04/28 03:34:39;;;;;;;10.98;6.43;;;4.60;91.90;;;;;;5051828;28;20668;-72
2021/04/28 03:37:06;;;;;;;7.05;6.05;;;4.50;92.20;;;;;;5051133;28;20591;-72
2021/04/28 03:39:32;;;;;;;10.57;6.80;;;4.50;92.20;;;;;;5048634;28;20742;-72
2021/04/28 03:41:59;;;;;;;6.75;5.65;;;4.50;92.40;;;;;;5048405;28;20251;-71
2021/04/28 03:44:26;;;;;;;7.40;6.28;;;4.50;92.50;;;;;;5049076;28;20209;-71
2021/04/28 03:46:52;;;;;;;8.20;5.88;;;4.40;92.80;;;;;;5049205;28;20205;-71
2021/04/28 03:49:19;;;;;;;12.38;6.93;;;4.40;93.20;;;;;;5049106;28;20240;-71
2021/04/28 03:51:45;;;;;;;8.40;6.18;;;4.40;93.00;;;;;;5048592;28;20266;-71
2021/04/28 03:54:12;;;;;;;7.47;6.20;;;4.40;93.60;;;;;;5051245;28;20209;-71
2021/04/28 03:56:39;;;;;;;8.20;6.00;;;4.40;93.30;;;;;;5051346;28;20219;-70
2021/04/28 03:59:07;;;;;;;6.90;5.65;;;4.30;93.60;;;;;;5050950;28;20264;-71
2021/04/28 04:01:34;;;;;;;8.43;6.50;;;4.30;93.60;;;;;;5050876;28;20672;-72
2021/04/28 04:04:00;;;;;;;6.68;5.95;;;4.30;93.60;;;;;;5051000;28;20292;-71
2021/04/28 04:06:26;;;;;;;9.48;7.05;;;4.30;93.70;;;;;;5051276;28;20524;-72
2021/04/28 04:08:53;;;;;;;8.98;6.75;;;4.30;94.00;;;;;;5051040;28;20221;-71
2021/04/28 04:11:19;;;;;;;7.53;6.70;;;4.30;94.10;;;;;;5050810;28;20565;-71
2021/04/28 04:13:45;;;;;;;10.00;6.88;;;4.20;94.00;;;;;;5051034;28;20209;-71
2021/04/28 04:16:12;;;;;;;8.65;7.00;;;4.20;94.30;;;;;;5051199;28;20205;-72
2021/04/28 04:18:38;;;;;;;10.35;6.93;;;4.20;94.40;;;;;;5051619;28;20232;-72
2021/04/28 04:21:06;;;;;;;6.80;5.93;;;4.20;94.90;;;;;;5050624;28;20200;-72
2021/04/28 04:23:32;;;;;;;7.45;6.75;;;4.10;95.40;;;;;;5051599;28;20201;-71
2021/04/28 04:25:58;;;;;;;8.48;6.97;;;4.20;95.30;;;;;;5051772;28;20197;-71
2021/04/28 04:28:24;;;;;;;7.53;6.25;;;4.20;95.10;;;;;;5051414;28;20205;-71
2021/04/28 04:30:52;;;;;;;7.82;5.80;;;4.20;95.00;;;;;;5050421;28;20228;-71
2021/04/28 04:33:19;;;;;;;8.05;6.68;;;4.20;94.90;;;;;;5050509;28;20201;-72
2021/04/28 04:35:46;;;;;;;9.25;6.30;;;4.20;95.00;;;;;;5050974;28;20868;-71
2021/04/28 04:38:13;;;;;;;9.32;6.75;;;4.30;95.00;;;;;;5050264;28;20201;-71
2021/04/28 04:40:40;;;;;;;11.73;6.40;;;4.30;95.10;;;;;;5050465;28;20228;-71
2021/04/28 04:43:06;;;;;;;12.20;6.72;;;4.20;95.50;;;;;;5050455;28;20216;-71
2021/04/28 04:45:34;;;;;;;11.23;7.43;;;4.20;95.50;;;;;;5050765;28;20209;-71
2021/04/28 04:48:00;;;;;;;14.02;7.75;;;4.30;95.50;;;;;;5050506;28;20205;-71
2021/04/28 04:50:27;;;;;;;14.52;8.25;;;4.30;95.40;;;;;;5049993;28;20804;-71
2021/04/28 04:52:53;;;;;;;8.57;7.15;;;4.40;95.50;;;;;;5050173;28;20220;-71
2021/04/28 04:55:21;;;;;;;11.10;7.20;;;4.40;95.50;;;;;;5050134;28;20209;-71
2021/04/28 04:57:47;;;;;;;9.27;7.47;;;4.50;95.50;;;;;;5050383;28;20324;-71
2021/04/28 05:00:15;;;;;;;9.38;7.05;;;4.50;95.30;;;;;;5049659;28;20213;-71
2021/04/28 05:02:41;;;;;;;7.85;6.75;;;4.50;95.60;;;;;;5050312;28;20255;-71
2021/04/28 05:05:08;;;;;;;8.38;6.60;;;4.50;95.70;;;;;;5050390;28;20274;-71
2021/04/28 05:07:35;;;;;;;9.18;6.28;;;4.60;95.70;;;;;;5050269;28;20327;-71
2021/04/28 05:10:03;;;;;;;9.25;6.82;;;4.70;95.70;;;;;;5050094;28;20229;-71
2021/04/28 05:12:29;;;;;;;8.68;6.68;;;4.80;95.70;;;;;;5049534;28;20669;-71
2021/04/28 05:14:55;;;;;;;8.63;7.50;;;4.90;95.70;;;;;;5050176;28;20197;-71
2021/04/28 05:17:21;;;;;;;10.77;7.47;;;5.00;95.70;;;;;;5049843;28;20201;-71
2021/04/28 05:19:48;;;;;;;9.90;6.38;;;5.00;95.90;;;;;;5049725;28;20252;-71
2021/04/28 05:22:14;;;;;;;11.13;7.25;;;5.10;95.80;;;;;;5049477;28;20197;-71
2021/04/28 05:24:41;;;;;;;11.25;7.50;;;5.20;95.70;;;;;;5049876;28;20205;-71
2021/04/28 05:27:07;;;;;;;9.70;6.70;;;5.30;95.80;;;;;;5049736;28;20197;-71
2021/04/28 05:29:33;;;;;;;8.38;7.45;;;5.40;95.70;;;;;;5049599;28;20229;-71
2021/04/28 05:32:00;;;;;;;12.05;8.25;;;5.50;95.60;;;;;;5049282;28;20243;-71
2021/04/28 05:34:26;;;;;;;10.45;7.38;;;5.70;95.60;;;;;;5049577;28;20737;-71
2021/04/28 05:36:52;;;;;;;9.85;7.25;;;5.80;95.30;;;;;;5049705;28;20205;-71
2021/04/28 05:39:18;;;;;;;10.73;7.78;;;5.90;95.60;;;;;;5049390;28;20220;-71
2021/04/28 05:41:45;;;;;;;8.23;6.72;;;6.00;95.50;;;;;;5048999;28;20197;-71
2021/04/28 05:44:12;;;;;;;13.55;6.82;;;6.20;95.50;;;;;;5049521;28;20205;-71
2021/04/28 05:46:39;;;;;;;15.70;8.18;;;6.30;95.30;;;;;;5049540;28;20205;-71
2021/04/28 05:49:05;;;;;;;9.45;7.55;;;6.40;95.30;;;;;;5049455;28;20221;-71
2021/04/28 05:51:32;;;;;;;10.32;7.00;;;6.60;95.60;;;;;;5048665;28;20318;-71
2021/04/28 05:53:58;;;;;;;9.88;7.00;;;6.70;95.50;;;;;;5049407;28;21023;-71
2021/04/28 05:56:25;;;;;;;12.73;7.28;;;6.80;95.50;;;;;;5049093;28;20205;-71
2021/04/28 05:59:25;;;;;;;;;;;;;;;;;;;;;
2021/04/28 06:07:01;;;;;;;8.20;7.40;;;7.40;93.40;;;;;;4924835;29;20205;-92
2021/04/28 07:00:15;;;;;;;9.98;7.72;;;11.20;81.50;;;;;;5076140;22;20248;-68
2021/04/28 07:02:44;;;;;;;9.35;7.70;;;11.40;80.60;;;;;;5069784;28;20314;-68
2021/04/28 07:05:12;;;;;;;8.20;6.50;;;11.50;80.80;;;;;;5069984;28;20575;-68
2021/04/28 07:07:38;;;;;;;8.97;7.20;;;11.60;79.70;;;;;;5069805;28;20469;-68
2021/04/28 07:10:06;;;;;;;9.93;6.93;;;11.80;81.80;;;;;;5068565;28;20830;-68
2021/04/28 07:12:35;;;;;;;12.03;7.87;;;12.00;80.50;;;;;;5070631;28;20489;-68
2021/04/28 07:15:02;;;;;;;10.83;7.10;;;12.10;78.70;;;;;;5070469;28;20466;-68
2021/04/28 07:17:29;;;;;;;11.53;8.23;;;12.20;80.40;;;;;;5070388;28;20508;-69
2021/04/28 07:20:00;;;;;;;8.60;7.70;;;12.40;79.10;;;;;;5068464;28;20490;-68
2021/04/28 07:22:27;;;;;;;9.90;7.53;;;12.50;78.50;;;;;;5069828;28;20466;-69
2021/04/28 07:24:54;;;;;;;8.50;7.50;;;12.60;78.20;;;;;;5069463;28;20462;-68
2021/04/28 07:27:20;;;;;;;11.33;8.00;;;12.70;79.00;;;;;;5068266;28;20461;-67
2021/04/28 07:29:49;;;;;;;9.60;7.60;;;12.90;77.60;;;;;;5068571;28;20479;-70
2021/04/28 07:32:16;;;;;;;12.37;8.20;;;13.00;77.30;;;;;;5069236;28;20998;-72
2021/04/28 07:34:44;;;;;;;9.83;8.83;;;13.20;76.30;;;;;;5070398;28;20851;-70
2021/04/28 07:37:11;;;;;;;12.37;7.83;;;13.20;76.40;;;;;;5069929;28;20462;-72
2021/04/28 07:39:37;;;;;;;10.23;8.10;;;13.30;77.00;;;;;;5068386;28;20528;-70
2021/04/28 07:42:04;;;;;;;11.10;8.40;;;13.40;77.20;;;;;;5059951;28;20451;-69
2021/04/28 07:44:31;;;;;;;10.53;7.90;;;13.50;75.30;;;;;;5069506;28;20462;-70
2021/04/28 07:47:01;;;;;;;9.37;7.73;;;13.70;78.40;;;;;;5068981;28;20463;-70
2021/04/28 07:49:28;;;;;;;8.83;7.90;;;13.80;77.20;;;;;;5067571;28;21009;-69
2021/04/28 07:51:55;;;;;;;10.00;7.80;;;14.00;76.40;;;;;;5069890;28;20561;-70
2021/04/28 07:54:22;;;;;;;9.07;8.17;;;14.20;76.10;;;;;;5069576;28;20466;-70
2021/04/28 07:56:49;;;;;;;9.03;7.40;;;14.30;75.60;;;;;;5069828;28;20470;-70
2021/04/28 07:59:19;;;;;;;13.10;8.80;;;14.40;76.50;;;;;;5067902;28;20924;-70
2021/04/28 08:01:45;;;;;;;10.00;7.90;;;14.60;76.80;;;;;;5069840;28;20570;-70
2021/04/28 08:04:11;;;;;;;9.63;7.77;;;14.70;76.60;;;;;;5068942;28;20491;-67
2021/04/28 08:06:37;;;;;;;9.30;7.87;;;14.90;76.50;;;;;;5070352;28;20463;-70
2021/04/28 08:09:06;;;;;;;13.10;8.50;;;15.10;76.40;;;;;;5067786;28;20486;-68
2021/04/28 08:11:34;;;;;;;16.17;9.70;;;15.30;74.80;;;;;;5069977;28;20482;-71
2021/04/28 08:14:00;;;;;;;11.60;8.90;;;15.40;78.10;;;;;;5070322;28;20516;-70
2021/04/28 08:16:26;;;;;;;10.30;8.30;;;15.60;75.20;;;;;;5069934;28;20462;-70
2021/04/28 08:18:53;;;;;;;9.90;8.30;;;15.80;77.20;;;;;;5068265;28;20489;-70
2021/04/28 08:21:19;;;;;;;11.60;8.30;;;16.10;75.20;;;;;;5069137;28;20822;-70
2021/04/28 08:23:45;;;;;;;14.00;9.47;;;16.30;74.70;;;;;;5068232;28;21071;-70
2021/04/28 08:26:15;;;;;;;11.53;8.00;;;16.40;73.70;;;;;;5065233;28;20466;-70
2021/04/28 08:28:43;;;;;;;10.73;9.13;;;16.70;73.90;;;;;;5070823;28;20501;-69
2021/04/28 08:31:11;;;;;;;11.57;8.20;;;17.00;73.40;;;;;;5070300;28;20486;-70
2021/04/28 08:33:40;;;;;;;11.80;8.60;;;17.30;72.80;;;;;;5070457;28;20466;-70
2021/04/28 08:36:07;;;;;;;11.67;8.30;;;17.40;74.20;;;;;;5070908;28;20462;-70
2021/04/28 08:38:34;;;;;;;12.93;9.07;;;17.50;70.90;;;;;;5070236;28;20473;-70
2021/04/28 08:41:02;;;;;;;11.13;9.03;;;17.80;72.30;;;;;;5070133;28;20962;-70
2021/04/28 08:43:30;;;;;;;10.70;8.07;;;18.10;69.20;;;;;;5070048;28;20469;-70
2021/04/28 08:45:56;;;;;;;11.27;9.30;;;18.40;69.50;;;;;;5068886;28;20459;-70
2021/04/28 08:48:23;;;;;;;13.03;8.73;;;18.80;69.70;;;;;;5070187;28;20461;-69
2021/04/28 08:50:50;;;;;;;11.20;8.90;;;19.30;69.50;;;;;;5069533;28;21009;-70
2021/04/28 08:53:17;;;;;;;12.00;8.53;;;19.80;69.30;;;;;;5069087;28;20462;-70
2021/04/28 08:55:44;;;;;;;12.97;9.50;;;20.30;69.20;;;;;;5070290;28;20459;-68
2021/04/28 08:58:11;;;;;;;11.00;8.80;;;20.60;66.00;;;;;;5069746;28;20466;-70
2021/04/28 09:00:38;;;;;;;13.40;10.50;;;20.50;66.20;;;;;;5069463;28;20535;-70
2021/04/28 09:03:05;;;;;;;11.10;8.70;;;20.60;66.10;;;;;;5069927;28;20462;-70
2021/04/28 09:05:33;;;;;;;10.17;8.23;;;20.90;66.10;;;;;;5069962;28;20486;-69
2021/04/28 09:07:59;;;;;;;11.00;8.70;;;21.10;66.10;;;;;;5069562;28;20488;-70
2021/04/28 09:10:27;;;;;;;11.00;8.67;;;21.10;62.50;;;;;;5068740;28;20482;-70
2021/04/28 09:12:56;;;;;;;10.10;8.70;;;21.10;64.00;;;;;;5069633;28;20961;-69
2021/04/28 09:15:42;;;;;;;10.47;8.03;;;21.60;67.30;;;;;;5070085;28;20472;-70
2021/04/28 09:18:10;;;;;;;10.47;9.20;;;22.20;66.00;;;;;;5069622;28;20976;-70
2021/04/28 09:20:43;;;;;;;11.70;9.37;;;22.50;63.20;;;;;;5069017;28;20478;-70
2021/04/28 09:23:13;;;;;;;16.43;9.53;;;22.90;62.50;;;;;;5068994;28;20455;-68
2021/04/28 09:25:42;;;;;;;9.83;8.40;;;23.40;63.50;;;;;;5069498;28;20973;-68
2021/04/28 09:28:23;;;;;;;9.77;8.30;;;23.60;62.30;;;;;;5069391;28;20830;-68
2021/04/28 09:30:50;;;;;;;11.23;8.50;;;23.80;61.40;;;;;;5068993;28;20490;-68
2021/04/28 09:33:17;;;;;;;10.07;8.27;;;24.10;60.40;;;;;;5069324;28;20460;-70
2021/04/28 09:35:43;;;;;;;10.10;9.03;;;24.30;62.50;;;;;;5069399;28;20466;-69
2021/04/28 09:38:11;;;;;;;11.27;8.83;;;24.40;60.90;;;;;;5065491;28;20459;-68
2021/04/28 09:40:45;;;;;;;10.97;8.07;;;24.70;59.10;;;;;;5068937;28;20479;-69
2021/04/28 09:43:12;;;;;;;9.30;8.40;;;24.60;59.60;;;;;;5069047;28;20490;-69
2021/04/28 09:45:40;;;;;;;9.83;8.37;;;24.70;59.70;;;;;;5069658;28;20988;-68
2021/04/28 09:48:10;;;;;;;9.50;7.60;;;25.00;57.50;;;;;;5068407;28;20465;-69
2021/04/28 09:50:38;;;;;;;9.57;7.60;;;25.30;58.90;;;;;;5063649;28;21067;-69
2021/04/28 09:53:04;;;;;;;10.67;9.37;;;25.60;56.10;;;;;;5069019;28;20459;-69
2021/04/28 09:55:31;;;;;;;11.47;8.80;;;25.80;56.40;;;;;;5069086;28;20451;-69
2021/04/28 09:57:57;;;;;;;11.97;9.10;;;25.80;56.30;;;;;;5068052;28;20953;-69
2021/04/28 10:00:24;;;;;;;8.60;7.53;;;26.00;55.00;;;;;;5067686;28;20485;-69
2021/04/28 10:02:53;;;;;;;8.87;7.27;;;26.00;57.00;;;;;;5069138;28;20465;-70
2021/04/28 10:05:25;;;;;;;10.77;8.57;;;26.20;56.90;;;;;;5068981;28;20473;-67
2021/04/28 10:07:53;;;;;;;9.07;8.17;;;26.30;54.60;;;;;;5069000;28;20458;-70
2021/04/28 10:10:22;;;;;;;9.23;8.23;;;26.50;53.60;;;;;;5067866;28;20482;-69
2021/04/28 10:12:48;;;;;;;10.90;7.77;;;26.70;52.10;;;;;;5068481;28;20495;-69
2021/04/28 10:15:15;;;;;;;8.33;7.40;;;26.90;54.90;;;;;;5068235;28;20487;-69
2021/04/28 10:17:42;;;;;;;10.90;7.93;;;27.10;52.40;;;;;;5067531;28;20451;-70
2021/04/28 10:20:09;;;;;;;10.93;8.00;;;27.10;53.80;;;;;;5066137;28;20487;-68
2021/04/28 10:22:39;;;;;;;8.40;7.60;;;27.50;54.50;;;;;;5069015;28;20462;-70
2021/04/28 10:25:08;;;;;;;11.20;7.90;;;28.00;53.60;;;;;;5069053;28;20461;-69
2021/04/28 10:27:35;;;;;;;8.27;7.43;;;28.40;51.70;;;;;;5068978;28;20464;-70
2021/04/28 10:30:02;;;;;;;7.20;6.50;;;28.50;52.20;;;;;;5068797;28;20484;-70
2021/04/28 10:32:28;;;;;;;8.43;7.00;;;28.80;53.60;;;;;;5069509;28;21054;-68
2021/04/28 10:34:59;;;;;;;7.90;7.10;;;28.70;50.20;;;;;;5068777;28;20561;-70
2021/04/28 10:37:28;;;;;;;8.90;8.00;;;28.60;52.20;;;;;;5068653;28;20468;-69
2021/04/28 10:39:57;;;;;;;10.83;7.40;;;28.60;50.50;;;;;;5068830;28;20484;-69
2021/04/28 10:42:26;;;;;;;9.63;6.60;;;28.80;51.10;;;;;;5068264;28;20472;-69
2021/04/28 10:44:52;;;;;;;6.50;5.90;;;28.90;51.70;;;;;;5069140;28;20473;-69
2021/04/28 10:47:25;;;;;;;4.40;4.00;;;28.40;44.80;;;;;;5068488;28;20469;-68
2021/04/28 10:50:22;;;;;;;6.30;4.97;;;27.90;42.70;;;;;;5068751;28;20497;-69
2021/04/28 10:52:57;;;;;;;7.10;6.40;;;26.50;43.70;;;;;;5068617;28;21073;-69
2021/04/28 10:55:46;;;;;;;5.30;4.83;;;26.30;49.70;;;;;;5068834;28;20460;-73
2021/04/28 10:58:43;;;;;;;5.13;4.10;;;25.60;43.80;;;;;;5068473;28;20841;-67
2021/04/28 11:01:20;;;;;;;5.03;4.30;;;25.60;46.50;;;;;;5068332;28;20460;-67
2021/04/28 11:03:49;;;;;;;6.50;5.90;;;26.50;47.40;;;;;;5068018;28;20874;-67
2021/04/28 11:06:32;;;;;;;4.80;4.40;;;27.20;50.40;;;;;;5061738;28;20455;-68
2021/04/28 11:09:18;;;;;;;4.60;4.20;;;27.70;42.20;;;;;;5065808;28;20579;-67
2021/04/28 11:11:51;;;;;;;5.00;4.50;;;27.60;45.10;;;;;;5066534;28;20494;-68
2021/04/28 11:14:29;;;;;;;4.50;4.10;;;26.70;42.60;;;;;;5066412;28;20489;-68
2021/04/28 11:16:58;;;;;;;8.50;4.00;;;25.40;44.10;;;;;;5067937;28;20454;-68
2021/04/28 11:19:26;;;;;;;5.53;4.63;;;25.50;43.30;;;;;;5068489;28;20482;-68
2021/04/28 11:22:11;;;;;;;3.73;3.37;;;25.40;42.50;;;;;;5069959;28;20458;-68
2021/04/28 11:24:53;;;;;;;4.20;3.63;;;25.20;44.20;;;;;;5070067;28;20466;-68
2021/04/28 11:27:46;;;;;;;4.80;3.27;;;25.30;44.20;;;;;;5069424;28;20519;-68
2021/04/28 11:30:24;;;;;;;4.07;3.60;;;26.30;47.00;;;;;;5067962;28;20478;-68
2021/04/28 11:33:16;;;;;;;3.97;3.57;;;26.20;43.00;;;;;;5061985;28;20450;-68
2021/04/28 11:35:44;;;;;;;4.90;4.23;;;25.80;44.00;;;;;;5046908;28;20957;-68
2021/04/28 11:38:12;;;;;;;4.73;4.00;;;26.20;42.50;;;;;;5070055;28;20712;-68
2021/04/28 11:40:49;;;;;;;4.60;3.53;;;26.10;46.20;;;;;;5068706;28;20487;-69
2021/04/28 11:43:19;;;;;;;3.80;3.40;;;25.60;43.40;;;;;;5070024;28;20462;-69
2021/04/28 11:45:45;;;;;;;4.30;3.97;;;24.90;45.20;;;;;;5069470;28;20878;-69
2021/04/28 11:48:16;;;;;;;4.43;4.00;;;24.90;43.80;;;;;;5068381;28;20552;-69
2021/04/28 11:50:48;;;;;;;5.70;4.30;;;25.00;45.20;;;;;;5060159;28;20755;-69
2021/04/28 11:53:14;;;;;;;5.50;4.03;;;25.80;47.10;;;;;;5070187;28;20459;-69
2021/04/28 11:55:40;;;;;;;5.67;3.50;;;26.60;44.50;;;;;;5070406;28;20782;-69
2021/04/28 11:58:29;;;;;;;4.50;3.73;;;27.50;45.40;;;;;;5068140;28;20966;-69
2021/04/28 12:01:12;;;;;;;5.90;4.73;;;28.40;44.20;;;;;;5128080;22;20910;-69
2021/04/28 12:04:01;;;;;;;4.33;3.90;;;28.00;46.20;;;;;;5046990;28;20500;-69
2021/04/28 12:06:33;;;;;;;4.10;3.70;;;27.90;45.40;;;;;;5039846;28;20475;-69
2021/04/28 12:09:23;;;;;;;6.77;3.13;;;28.40;47.20;;;;;;5048340;28;20491;-70
2021/04/28 12:12:06;;;;;;;4.13;3.73;;;29.10;47.50;;;;;;5049373;28;20484;-69
2021/04/28 12:14:33;;;;;;;8.60;3.73;;;29.70;45.20;;;;;;5047782;28;20468;-69
2021/04/28 12:16:59;;;;;;;4.40;3.60;;;29.70;41.50;;;;;;5049285;28;20456;-69
2021/04/28 12:19:27;;;;;;;4.43;3.97;;;29.90;43.70;;;;;;5045812;28;20490;-69
2021/04/28 12:21:55;;;;;;;5.83;3.93;;;29.90;42.70;;;;;;5047182;28;20461;-69
2021/04/28 12:24:30;;;;;;;5.73;4.03;;;29.50;42.10;;;;;;5048835;28;20463;-69
2021/04/28 12:27:17;;;;;;;4.40;3.50;;;28.20;41.90;;;;;;5048757;28;20511;-69
2021/04/28 12:29:47;;;;;;;5.20;3.70;;;27.80;44.20;;;;;;5047525;28;20904;-70
2021/04/28 12:32:14;;;;;;;3.63;3.27;;;27.10;44.80;;;;;;5048324;28;20860;-70
2021/04/28 12:34:43;;;;;;;4.00;3.70;;;27.10;45.80;;;;;;5049183;28;20470;-69
2021/04/28 12:37:22;;;;;;;4.40;4.00;;;27.20;44.90;;;;;;5048874;28;20472;-69
2021/04/28 12:39:50;;;;;;;3.93;3.57;;;26.00;42.90;;;;;;5047310;28;21006;-70
2021/04/28 12:42:20;;;;;;;4.97;3.73;;;24.50;45.30;;;;;;5044972;28;20468;-70
2021/04/28 12:44:49;;;;;;;4.00;3.70;;;24.40;47.30;;;;;;5047593;28;20460;-68
2021/04/28 12:47:16;;;;;;;6.60;4.90;;;24.70;48.00;;;;;;5049904;28;20637;-69
2021/04/28 12:49:42;;;;;;;6.13;4.93;;;25.20;48.40;;;;;;5050215;28;20486;-70
2021/04/28 12:52:14;;;;;;;4.90;4.10;;;25.40;49.00;;;;;;5049419;28;20488;-70
2021/04/28 12:54:40;;;;;;;4.30;3.90;;;25.20;48.50;;;;;;5049938;28;20466;-70
2021/04/28 12:57:18;;;;;;;4.20;3.90;;;24.90;50.00;;;;;;5049691;28;20946;-69
2021/04/28 12:59:44;;;;;;;6.40;5.70;;;24.60;49.40;;;;;;5050131;28;20487;-69
2021/04/28 13:02:18;;;;;;;6.60;6.00;;;24.50;49.60;;;;;;5048826;28;20982;-70
2021/04/28 13:04:49;;;;;;;6.17;5.60;;;24.20;50.70;;;;;;5049878;28;20495;-70
2021/04/28 13:07:16;;;;;;;6.50;5.30;;;23.90;49.90;;;;;;5048878;28;20880;-70
2021/04/28 13:09:44;;;;;;;6.13;5.40;;;23.70;53.00;;;;;;5049849;28;20480;-69
2021/04/28 13:12:31;;;;;;;5.93;5.33;;;23.50;52.10;;;;;;5048730;28;20484;-70
2021/04/28 13:15:00;;;;;;;6.53;5.63;;;23.20;53.30;;;;;;5049365;28;20459;-69
2021/04/28 13:17:27;;;;;;;8.00;5.40;;;23.20;53.70;;;;;;5049124;28;20471;-70
2021/04/28 13:19:53;;;;;;;9.60;6.10;;;23.10;52.30;;;;;;5049017;28;20491;-69
2021/04/28 13:22:21;;;;;;;9.27;6.53;;;22.90;53.80;;;;;;5048534;28;20459;-69
2021/04/28 13:24:49;;;;;;;9.90;6.23;;;22.80;54.20;;;;;;5049782;28;20467;-69
2021/04/28 13:27:16;;;;;;;7.43;5.50;;;22.80;53.30;;;;;;5040171;28;20925;-70
2021/04/28 13:30:06;;;;;;;10.53;6.60;;;22.70;53.40;;;;;;5029138;28;20494;-69
2021/04/28 13:32:38;;;;;;;6.60;5.77;;;22.80;55.60;;;;;;5022467;28;21451;-70
2021/04/28 13:35:19;;;;;;;6.80;6.00;;;22.70;53.60;;;;;;5029306;28;20518;-69
2021/04/28 13:37:59;;;;;;;7.93;5.70;;;22.50;54.80;;;;;;5029128;28;20470;-69
2021/04/28 13:40:31;;;;;;;6.00;5.40;;;22.50;52.70;;;;;;5028169;28;20858;-70
2021/04/28 13:42:59;;;;;;;8.30;6.40;;;22.50;54.90;;;;;;5028867;28;20471;-70
2021/04/28 13:45:25;;;;;;;7.10;6.40;;;22.40;56.40;;;;;;5029296;28;20460;-70
2021/04/28 13:47:53;;;;;;;6.70;5.77;;;22.40;56.40;;;;;;5029266;28;20468;-69
2021/04/28 13:50:20;;;;;;;6.57;5.87;;;22.40;56.50;;;;;;5027913;28;20484;-70
2021/04/28 13:52:47;;;;;;;6.27;5.67;;;22.40;56.70;;;;;;5029190;28;20571;-69
2021/04/28 13:55:14;;;;;;;10.90;6.13;;;22.30;56.40;;;;;;5028532;28;20919;-69